sensor_id;sensor_type;location;lat;lon;timestamp;temperature;humidity
54540;SHT30;40438;52.992;18.604;2023-08-21T00:01:16;23.57;75.43
54540;SHT30;40438;52.992;18.604;2023-08-21T00:03:43;23.61;75.30
54540;SHT30;40438;52.992;18.604;2023-08-21T00:06:09;23.57;75.39
54540;SHT30;40438;52.992;18.604;2023-08-21T00:08:35;23.50;75.56
54540;SHT30;40438;52.992;18.604;2023-08-21T00:11:00;23.47;75.63
54540;SHT30;40438;52.992;18.604;2023-08-21T00:13:26;23.43;75.81
54540;SHT30;40438;52.992;18.604;2023-08-21T00:15:52;23.40;76.03
54540;SHT30;40438;52.992;18.604;2023-08-21T00:18:18;23.37;76.09
54540;SHT30;40438;52.992;18.604;2023-08-21T00:20:45;23.39;76.24
54540;SHT30;40438;52.992;18.604;2023-08-21T00:23:11;23.37;76.56
54540;SHT30;40438;52.992;18.604;2023-08-21T00:25:36;23.36;76.78
54540;SHT30;40438;52.992;18.604;2023-08-21T00:28:02;23.33;77.19
54540;SHT30;40438;52.992;18.604;2023-08-21T00:30:28;23.27;77.45
54540;SHT30;40438;52.992;18.604;2023-08-21T00:32:54;23.25;77.73
54540;SHT30;40438;52.992;18.604;2023-08-21T00:35:20;23.22;77.84
54540;SHT30;40438;52.992;18.604;2023-08-21T00:37:47;23.19;78.02
54540;SHT30;40438;52.992;18.604;2023-08-21T00:40:13;23.19;78.16
54540;SHT30;40438;52.992;18.604;2023-08-21T00:42:39;23.16;78.15
54540;SHT30;40438;52.992;18.604;2023-08-21T00:45:06;23.16;78.16
54540;SHT30;40438;52.992;18.604;2023-08-21T00:47:32;23.18;78.07
54540;SHT30;40438;52.992;18.604;2023-08-21T00:49:58;23.14;78.14
54540;SHT30;40438;52.992;18.604;2023-08-21T00:52:25;23.14;78.23
54540;SHT30;40438;52.992;18.604;2023-08-21T00:54:52;23.11;78.14
54540;SHT30;40438;52.992;18.604;2023-08-21T00:57:20;23.11;78.25
54540;SHT30;40438;52.992;18.604;2023-08-21T00:59:46;23.12;78.25
54540;SHT30;40438;52.992;18.604;2023-08-21T01:02:12;23.06;78.35
54540;SHT30;40438;52.992;18.604;2023-08-21T01:04:38;23.03;78.59
54540;SHT30;40438;52.992;18.604;2023-08-21T01:07:04;23.05;78.61
54540;SHT30;40438;52.992;18.604;2023-08-21T01:09:36;23.03;78.68
54540;SHT30;40438;52.992;18.604;2023-08-21T01:12:12;23.03;78.73
54540;SHT30;40438;52.992;18.604;2023-08-21T01:14:44;23.08;78.72
54540;SHT30;40438;52.992;18.604;2023-08-21T01:17:14;23.09;78.60
54540;SHT30;40438;52.992;18.604;2023-08-21T01:19:43;23.14;78.52
54540;SHT30;40438;52.992;18.604;2023-08-21T01:22:09;23.16;78.43
54540;SHT30;40438;52.992;18.604;2023-08-21T01:24:36;23.16;78.49
54540;SHT30;40438;52.992;18.604;2023-08-21T01:27:02;23.20;78.49
54540;SHT30;40438;52.992;18.604;2023-08-21T01:29:28;23.20;78.33
54540;SHT30;40438;52.992;18.604;2023-08-21T01:31:59;23.23;78.28
54540;SHT30;40438;52.992;18.604;2023-08-21T01:34:28;23.27;78.23
54540;SHT30;40438;52.992;18.604;2023-08-21T01:36:56;23.26;78.41
54540;SHT30;40438;52.992;18.604;2023-08-21T01:39:23;23.23;78.49
54540;SHT30;40438;52.992;18.604;2023-08-21T01:41:50;23.26;78.33
54540;SHT30;40438;52.992;18.604;2023-08-21T01:44:16;23.29;78.12
54540;SHT30;40438;52.992;18.604;2023-08-21T01:46:42;23.20;78.25
54540;SHT30;40438;52.992;18.604;2023-08-21T01:49:08;23.19;78.30
54540;SHT30;40438;52.992;18.604;2023-08-21T01:51:34;23.18;78.36
54540;SHT30;40438;52.992;18.604;2023-08-21T01:54:01;23.12;78.44
54540;SHT30;40438;52.992;18.604;2023-08-21T01:56:27;23.14;78.31
54540;SHT30;40438;52.992;18.604;2023-08-21T01:58:54;23.09;78.49
54540;SHT30;40438;52.992;18.604;2023-08-21T02:01:20;23.05;78.59
54540;SHT30;40438;52.992;18.604;2023-08-21T02:03:46;23.00;78.70
54540;SHT30;40438;52.992;18.604;2023-08-21T02:06:12;22.99;78.73
54540;SHT30;40438;52.992;18.604;2023-08-21T02:08:38;22.96;78.78
54540;SHT30;40438;52.992;18.604;2023-08-21T02:11:04;22.92;78.85
54540;SHT30;40438;52.992;18.604;2023-08-21T02:13:30;22.85;79.02
54540;SHT30;40438;52.992;18.604;2023-08-21T02:15:57;22.78;79.14
54540;SHT30;40438;52.992;18.604;2023-08-21T02:18:23;22.78;79.21
54540;SHT30;40438;52.992;18.604;2023-08-21T02:20:49;22.77;79.17
54540;SHT30;40438;52.992;18.604;2023-08-21T02:23:15;22.72;79.36
54540;SHT30;40438;52.992;18.604;2023-08-21T02:25:41;22.72;79.40
54540;SHT30;40438;52.992;18.604;2023-08-21T02:28:07;22.68;79.39
54540;SHT30;40438;52.992;18.604;2023-08-21T02:30:33;22.67;79.32
54540;SHT30;40438;52.992;18.604;2023-08-21T02:33:00;22.63;79.42
54540;SHT30;40438;52.992;18.604;2023-08-21T02:35:26;22.63;79.42
54540;SHT30;40438;52.992;18.604;2023-08-21T02:37:51;22.61;79.47
54540;SHT30;40438;52.992;18.604;2023-08-21T02:40:17;22.57;79.44
54540;SHT30;40438;52.992;18.604;2023-08-21T02:42:43;22.56;79.58
54540;SHT30;40438;52.992;18.604;2023-08-21T02:45:09;22.51;79.63
54540;SHT30;40438;52.992;18.604;2023-08-21T02:47:36;22.47;79.68
54540;SHT30;40438;52.992;18.604;2023-08-21T02:50:04;22.47;79.71
54540;SHT30;40438;52.992;18.604;2023-08-21T02:52:31;22.44;79.74
54540;SHT30;40438;52.992;18.604;2023-08-21T02:54:56;22.44;79.67
54540;SHT30;40438;52.992;18.604;2023-08-21T02:57:23;22.38;79.62
54540;SHT30;40438;52.992;18.604;2023-08-21T02:59:48;22.38;79.45
54540;SHT30;40438;52.992;18.604;2023-08-21T03:02:14;22.34;79.52
54540;SHT30;40438;52.992;18.604;2023-08-21T03:04:40;22.29;79.67
54540;SHT30;40438;52.992;18.604;2023-08-21T03:07:07;22.24;79.66
54540;SHT30;40438;52.992;18.604;2023-08-21T03:09:33;22.21;79.64
54540;SHT30;40438;52.992;18.604;2023-08-21T03:11:59;22.16;79.61
54540;SHT30;40438;52.992;18.604;2023-08-21T03:14:26;22.12;79.59
54540;SHT30;40438;52.992;18.604;2023-08-21T03:16:52;22.14;79.26
54540;SHT30;40438;52.992;18.604;2023-08-21T03:19:18;22.13;79.06
54540;SHT30;40438;52.992;18.604;2023-08-21T03:21:44;22.05;78.90
54540;SHT30;40438;52.992;18.604;2023-08-21T03:24:11;22.03;78.67
54540;SHT30;40438;52.992;18.604;2023-08-21T03:26:37;22.02;78.56
54540;SHT30;40438;52.992;18.604;2023-08-21T03:29:03;21.99;78.26
54540;SHT30;40438;52.992;18.604;2023-08-21T03:31:29;21.98;78.07
54540;SHT30;40438;52.992;18.604;2023-08-21T03:33:55;21.92;77.86
54540;SHT30;40438;52.992;18.604;2023-08-21T03:36:22;21.92;77.67
54540;SHT30;40438;52.992;18.604;2023-08-21T03:38:48;21.86;77.71
54540;SHT30;40438;52.992;18.604;2023-08-21T03:41:15;21.82;77.75
54540;SHT30;40438;52.992;18.604;2023-08-21T03:43:41;21.83;77.79
54540;SHT30;40438;52.992;18.604;2023-08-21T03:46:07;21.80;77.81
54540;SHT30;40438;52.992;18.604;2023-08-21T03:48:33;21.73;78.00
54540;SHT30;40438;52.992;18.604;2023-08-21T03:51:01;21.72;78.06
54540;SHT30;40438;52.992;18.604;2023-08-21T03:53:27;21.63;78.15
54540;SHT30;40438;52.992;18.604;2023-08-21T03:55:52;21.57;78.20
54540;SHT30;40438;52.992;18.604;2023-08-21T03:58:19;21.55;78.03
54540;SHT30;40438;52.992;18.604;2023-08-21T04:00:45;21.51;77.94
54540;SHT30;40438;52.992;18.604;2023-08-21T04:03:11;21.49;77.91
54540;SHT30;40438;52.992;18.604;2023-08-21T04:05:37;21.44;78.01
54540;SHT30;40438;52.992;18.604;2023-08-21T04:08:03;21.45;78.13
54540;SHT30;40438;52.992;18.604;2023-08-21T04:10:29;21.51;78.08
54540;SHT30;40438;52.992;18.604;2023-08-21T04:12:55;21.52;78.16
54540;SHT30;40438;52.992;18.604;2023-08-21T04:15:23;21.54;78.13
54540;SHT30;40438;52.992;18.604;2023-08-21T04:17:48;21.52;77.95
54540;SHT30;40438;52.992;18.604;2023-08-21T04:20:14;21.49;77.86
54540;SHT30;40438;52.992;18.604;2023-08-21T04:22:40;21.47;77.45
54540;SHT30;40438;52.992;18.604;2023-08-21T04:25:06;21.45;77.44
54540;SHT30;40438;52.992;18.604;2023-08-21T04:27:32;21.45;77.14
54540;SHT30;40438;52.992;18.604;2023-08-21T04:29:58;21.32;77.33
54540;SHT30;40438;52.992;18.604;2023-08-21T04:32:25;21.31;77.53
54540;SHT30;40438;52.992;18.604;2023-08-21T04:34:51;21.28;77.67
54540;SHT30;40438;52.992;18.604;2023-08-21T04:37:17;21.30;77.54
54540;SHT30;40438;52.992;18.604;2023-08-21T04:39:43;21.30;77.60
54540;SHT30;40438;52.992;18.604;2023-08-21T04:42:09;21.30;77.59
54540;SHT30;40438;52.992;18.604;2023-08-21T04:44:35;21.27;77.65
54540;SHT30;40438;52.992;18.604;2023-08-21T04:47:19;21.32;77.05
54540;SHT30;40438;52.992;18.604;2023-08-21T04:49:47;21.31;77.13
54540;SHT30;40438;52.992;18.604;2023-08-21T04:52:13;21.31;77.12
54540;SHT30;40438;52.992;18.604;2023-08-21T04:54:39;21.30;76.94
54540;SHT30;40438;52.992;18.604;2023-08-21T04:57:05;21.28;76.86
54540;SHT30;40438;52.992;18.604;2023-08-21T04:59:30;21.31;76.69
54540;SHT30;40438;52.992;18.604;2023-08-21T05:01:56;21.34;76.38
54540;SHT30;40438;52.992;18.604;2023-08-21T05:04:22;21.35;76.13
54540;SHT30;40438;52.992;18.604;2023-08-21T05:06:51;21.31;76.00
54540;SHT30;40438;52.992;18.604;2023-08-21T05:09:16;21.31;75.93
54540;SHT30;40438;52.992;18.604;2023-08-21T05:11:42;21.31;75.75
54540;SHT30;40438;52.992;18.604;2023-08-21T05:14:09;21.27;75.83
54540;SHT30;40438;52.992;18.604;2023-08-21T05:16:35;21.22;76.00
54540;SHT30;40438;52.992;18.604;2023-08-21T05:19:01;21.22;76.37
54540;SHT30;40438;52.992;18.604;2023-08-21T05:21:27;21.28;76.18
54540;SHT30;40438;52.992;18.604;2023-08-21T05:23:55;21.30;75.92
54540;SHT30;40438;52.992;18.604;2023-08-21T05:26:21;21.32;75.59
54540;SHT30;40438;52.992;18.604;2023-08-21T05:28:47;21.34;75.32
54540;SHT30;40438;52.992;18.604;2023-08-21T05:31:12;21.40;74.93
54540;SHT30;40438;52.992;18.604;2023-08-21T05:33:48;21.41;74.53
54540;SHT30;40438;52.992;18.604;2023-08-21T05:36:15;21.47;74.47
54540;SHT30;40438;52.992;18.604;2023-08-21T05:38:40;21.54;73.76
54540;SHT30;40438;52.992;18.604;2023-08-21T05:41:08;21.57;72.94
54540;SHT30;40438;52.992;18.604;2023-08-21T05:43:33;21.54;72.81
54540;SHT30;40438;52.992;18.604;2023-08-21T05:45:59;21.61;72.17
54540;SHT30;40438;52.992;18.604;2023-08-21T05:48:25;21.62;71.88
54540;SHT30;40438;52.992;18.604;2023-08-21T05:50:51;21.61;71.63
54540;SHT30;40438;52.992;18.604;2023-08-21T05:53:17;21.63;71.75
54540;SHT30;40438;52.992;18.604;2023-08-21T05:55:43;21.65;71.43
54540;SHT30;40438;52.992;18.604;2023-08-21T05:58:11;21.66;71.44
54540;SHT30;40438;52.992;18.604;2023-08-21T06:00:38;21.69;70.83
54540;SHT30;40438;52.992;18.604;2023-08-21T06:03:05;21.69;70.85
54540;SHT30;40438;52.992;18.604;2023-08-21T06:05:54;21.78;70.46
54540;SHT30;40438;52.992;18.604;2023-08-21T06:08:20;21.85;70.01
54540;SHT30;40438;52.992;18.604;2023-08-21T06:10:51;21.80;69.52
54540;SHT30;40438;52.992;18.604;2023-08-21T06:13:18;21.83;69.77
54540;SHT30;40438;52.992;18.604;2023-08-21T06:15:46;21.82;69.26
54540;SHT30;40438;52.992;18.604;2023-08-21T06:18:13;21.85;69.24
54540;SHT30;40438;52.992;18.604;2023-08-21T06:20:39;21.90;68.89
54540;SHT30;40438;52.992;18.604;2023-08-21T06:23:05;21.92;68.85
54540;SHT30;40438;52.992;18.604;2023-08-21T06:25:32;21.93;68.80
54540;SHT30;40438;52.992;18.604;2023-08-21T06:27:58;21.96;68.69
54540;SHT30;40438;52.992;18.604;2023-08-21T06:30:25;22.05;68.51
54540;SHT30;40438;52.992;18.604;2023-08-21T06:32:51;22.06;68.30
54540;SHT30;40438;52.992;18.604;2023-08-21T06:35:17;22.12;68.43
54540;SHT30;40438;52.992;18.604;2023-08-21T06:37:43;22.21;67.30
54540;SHT30;40438;52.992;18.604;2023-08-21T06:40:09;22.24;67.01
54540;SHT30;40438;52.992;18.604;2023-08-21T06:42:35;22.29;66.64
54540;SHT30;40438;52.992;18.604;2023-08-21T06:45:01;22.37;66.63
54540;SHT30;40438;52.992;18.604;2023-08-21T06:47:28;22.38;66.35
54540;SHT30;40438;52.992;18.604;2023-08-21T06:49:54;22.43;65.85
54540;SHT30;40438;52.992;18.604;2023-08-21T06:52:20;22.41;65.95
54540;SHT30;40438;52.992;18.604;2023-08-21T06:54:46;22.45;65.65
54540;SHT30;40438;52.992;18.604;2023-08-21T06:57:12;22.50;65.28
54540;SHT30;40438;52.992;18.604;2023-08-21T06:59:37;22.54;64.94
54540;SHT30;40438;52.992;18.604;2023-08-21T07:02:06;22.57;64.50
54540;SHT30;40438;52.992;18.604;2023-08-21T07:04:34;22.64;64.14
54540;SHT30;40438;52.992;18.604;2023-08-21T07:07:00;22.72;63.63
54540;SHT30;40438;52.992;18.604;2023-08-21T07:09:25;22.79;63.41
54540;SHT30;40438;52.992;18.604;2023-08-21T07:11:51;22.85;62.77
54540;SHT30;40438;52.992;18.604;2023-08-21T07:14:17;22.94;62.35
54540;SHT30;40438;52.992;18.604;2023-08-21T07:16:46;22.95;61.85
54540;SHT30;40438;52.992;18.604;2023-08-21T07:19:12;23.09;61.91
54540;SHT30;40438;52.992;18.604;2023-08-21T07:21:39;23.19;61.39
54540;SHT30;40438;52.992;18.604;2023-08-21T07:24:05;23.26;61.40
54540;SHT30;40438;52.992;18.604;2023-08-21T07:26:31;23.33;61.12
54540;SHT30;40438;52.992;18.604;2023-08-21T07:28:57;23.43;60.92
54540;SHT30;40438;52.992;18.604;2023-08-21T07:31:23;23.50;60.83
54540;SHT30;40438;52.992;18.604;2023-08-21T07:33:48;23.56;60.34
54540;SHT30;40438;52.992;18.604;2023-08-21T07:36:14;23.83;60.62
54540;SHT30;40438;52.992;18.604;2023-08-21T07:38:42;23.90;58.03
54540;SHT30;40438;52.992;18.604;2023-08-21T07:41:08;23.95;57.96
54540;SHT30;40438;52.992;18.604;2023-08-21T07:43:34;24.05;57.57
54540;SHT30;40438;52.992;18.604;2023-08-21T07:46:02;24.06;57.53
54540;SHT30;40438;52.992;18.604;2023-08-21T07:48:28;24.14;57.17
54540;SHT30;40438;52.992;18.604;2023-08-21T07:50:54;24.22;56.06
54540;SHT30;40438;52.992;18.604;2023-08-21T07:53:20;24.25;56.34
54540;SHT30;40438;52.992;18.604;2023-08-21T07:55:47;24.28;56.21
54540;SHT30;40438;52.992;18.604;2023-08-21T07:58:13;24.39;55.29
54540;SHT30;40438;52.992;18.604;2023-08-21T08:00:38;24.41;55.02
54540;SHT30;40438;52.992;18.604;2023-08-21T08:03:04;24.49;55.63
54540;SHT30;40438;52.992;18.604;2023-08-21T08:05:30;24.57;55.29
54540;SHT30;40438;52.992;18.604;2023-08-21T08:07:56;24.69;55.18
54540;SHT30;40438;52.992;18.604;2023-08-21T08:10:22;24.73;55.22
54540;SHT30;40438;52.992;18.604;2023-08-21T08:12:49;24.77;55.13
54540;SHT30;40438;52.992;18.604;2023-08-21T08:15:15;24.94;54.55
54540;SHT30;40438;52.992;18.604;2023-08-21T08:17:40;25.04;53.59
54540;SHT30;40438;52.992;18.604;2023-08-21T08:20:07;25.07;52.70
54540;SHT30;40438;52.992;18.604;2023-08-21T08:22:33;25.20;50.93
54540;SHT30;40438;52.992;18.604;2023-08-21T08:24:58;25.18;51.76
54540;SHT30;40438;52.992;18.604;2023-08-21T08:27:25;25.22;51.94
54540;SHT30;40438;52.992;18.604;2023-08-21T08:29:52;25.31;52.24
54540;SHT30;40438;52.992;18.604;2023-08-21T08:32:17;25.38;52.14
54540;SHT30;40438;52.992;18.604;2023-08-21T08:34:43;25.49;52.37
54540;SHT30;40438;52.992;18.604;2023-08-21T08:37:09;25.65;52.20
54540;SHT30;40438;52.992;18.604;2023-08-21T08:39:35;25.78;51.43
54540;SHT30;40438;52.992;18.604;2023-08-21T08:42:03;25.76;50.27
54540;SHT30;40438;52.992;18.604;2023-08-21T08:44:30;25.72;50.39
54540;SHT30;40438;52.992;18.604;2023-08-21T08:46:58;25.73;51.02
54540;SHT30;40438;52.992;18.604;2023-08-21T08:49:24;25.76;50.41
54540;SHT30;40438;52.992;18.604;2023-08-21T08:51:50;25.89;49.68
54540;SHT30;40438;52.992;18.604;2023-08-21T08:54:16;25.93;49.88
54540;SHT30;40438;52.992;18.604;2023-08-21T08:56:43;26.06;49.41
54540;SHT30;40438;52.992;18.604;2023-08-21T08:59:09;26.21;48.61
54540;SHT30;40438;52.992;18.604;2023-08-21T09:01:34;26.40;47.40
54540;SHT30;40438;52.992;18.604;2023-08-21T09:04:03;26.47;47.62
54540;SHT30;40438;52.992;18.604;2023-08-21T09:06:29;26.55;48.23
54540;SHT30;40438;52.992;18.604;2023-08-21T09:08:55;26.68;46.88
54540;SHT30;40438;52.992;18.604;2023-08-21T09:11:21;26.78;46.69
54540;SHT30;40438;52.992;18.604;2023-08-21T09:13:49;26.87;45.80
54540;SHT30;40438;52.992;18.604;2023-08-21T09:16:14;26.95;46.70
54540;SHT30;40438;52.992;18.604;2023-08-21T09:18:46;27.05;45.26
54540;SHT30;40438;52.992;18.604;2023-08-21T09:21:15;27.15;45.41
54540;SHT30;40438;52.992;18.604;2023-08-21T09:23:41;27.34;45.22
54540;SHT30;40438;52.992;18.604;2023-08-21T09:26:07;27.43;45.30
54540;SHT30;40438;52.992;18.604;2023-08-21T09:28:33;27.57;45.03
54540;SHT30;40438;52.992;18.604;2023-08-21T09:30:59;27.76;43.64
54540;SHT30;40438;52.992;18.604;2023-08-21T09:33:25;27.78;44.10
54540;SHT30;40438;52.992;18.604;2023-08-21T09:35:53;28.04;43.39
54540;SHT30;40438;52.992;18.604;2023-08-21T09:38:20;28.36;42.70
54540;SHT30;40438;52.992;18.604;2023-08-21T09:40:50;28.56;42.29
54540;SHT30;40438;52.992;18.604;2023-08-21T09:43:17;28.66;41.76
54540;SHT30;40438;52.992;18.604;2023-08-21T09:45:46;28.90;41.45
54540;SHT30;40438;52.992;18.604;2023-08-21T09:48:13;29.32;40.63
54540;SHT30;40438;52.992;18.604;2023-08-21T09:50:39;29.46;39.94
54540;SHT30;40438;52.992;18.604;2023-08-21T09:53:06;29.82;40.75
54540;SHT30;40438;52.992;18.604;2023-08-21T09:55:35;29.97;39.10
54540;SHT30;40438;52.992;18.604;2023-08-21T09:58:01;30.25;38.76
54540;SHT30;40438;52.992;18.604;2023-08-21T10:00:29;30.58;37.79
54540;SHT30;40438;52.992;18.604;2023-08-21T10:02:59;30.61;37.87
54540;SHT30;40438;52.992;18.604;2023-08-21T10:05:26;31.02;37.87
54540;SHT30;40438;52.992;18.604;2023-08-21T10:07:54;31.09;38.87
54540;SHT30;40438;52.992;18.604;2023-08-21T10:10:20;31.33;38.27
54540;SHT30;40438;52.992;18.604;2023-08-21T10:12:49;31.56;37.28
54540;SHT30;40438;52.992;18.604;2023-08-21T10:15:15;31.66;37.19
54540;SHT30;40438;52.992;18.604;2023-08-21T10:17:43;31.73;36.15
54540;SHT30;40438;52.992;18.604;2023-08-21T10:20:09;31.82;35.99
54540;SHT30;40438;52.992;18.604;2023-08-21T10:22:46;31.87;36.15
54540;SHT30;40438;52.992;18.604;2023-08-21T10:25:16;32.21;35.67
54540;SHT30;40438;52.992;18.604;2023-08-21T10:27:42;32.32;35.44
54540;SHT30;40438;52.992;18.604;2023-08-21T10:30:14;31.82;36.33
54540;SHT30;40438;52.992;18.604;2023-08-21T10:32:44;31.76;36.58
54540;SHT30;40438;52.992;18.604;2023-08-21T10:35:14;31.98;37.00
54540;SHT30;40438;52.992;18.604;2023-08-21T10:38:07;32.14;35.86
54540;SHT30;40438;52.992;18.604;2023-08-21T10:40:33;32.12;35.14
54540;SHT30;40438;52.992;18.604;2023-08-21T10:43:00;31.99;35.33
54540;SHT30;40438;52.992;18.604;2023-08-21T10:45:27;31.78;35.99
54540;SHT30;40438;52.992;18.604;2023-08-21T10:47:53;31.80;36.96
54540;SHT30;40438;52.992;18.604;2023-08-21T10:50:21;32.02;36.70
54540;SHT30;40438;52.992;18.604;2023-08-21T10:52:48;32.22;35.82
54540;SHT30;40438;52.992;18.604;2023-08-21T10:55:16;32.28;34.59
54540;SHT30;40438;52.992;18.604;2023-08-21T10:57:42;32.09;34.87
54540;SHT30;40438;52.992;18.604;2023-08-21T11:00:09;32.05;35.49
54540;SHT30;40438;52.992;18.604;2023-08-21T11:02:38;32.15;34.86
54540;SHT30;40438;52.992;18.604;2023-08-21T11:05:06;32.26;34.66
54540;SHT30;40438;52.992;18.604;2023-08-21T11:07:37;32.24;34.97
54540;SHT30;40438;52.992;18.604;2023-08-21T11:10:03;31.98;35.53
54540;SHT30;40438;52.992;18.604;2023-08-21T11:12:29;31.87;35.51
54540;SHT30;40438;52.992;18.604;2023-08-21T11:14:55;31.54;36.31
54540;SHT30;40438;52.992;18.604;2023-08-21T11:17:21;31.13;37.18
54540;SHT30;40438;52.992;18.604;2023-08-21T11:19:48;31.02;37.43
54540;SHT30;40438;52.992;18.604;2023-08-21T11:22:14;30.64;38.11
54540;SHT30;40438;52.992;18.604;2023-08-21T11:24:42;30.40;39.53
54540;SHT30;40438;52.992;18.604;2023-08-21T11:27:08;30.20;39.25
54540;SHT30;40438;52.992;18.604;2023-08-21T11:29:36;30.07;40.01
54540;SHT30;40438;52.992;18.604;2023-08-21T11:32:03;30.10;40.12
54540;SHT30;40438;52.992;18.604;2023-08-21T11:34:28;30.33;39.96
54540;SHT30;40438;52.992;18.604;2023-08-21T11:36:56;30.62;40.38
54540;SHT30;40438;52.992;18.604;2023-08-21T11:39:22;30.74;39.97
54540;SHT30;40438;52.992;18.604;2023-08-21T11:41:54;30.69;39.54
54540;SHT30;40438;52.992;18.604;2023-08-21T11:44:20;30.79;40.16
54540;SHT30;40438;52.992;18.604;2023-08-21T11:46:46;30.72;40.41
54540;SHT30;40438;52.992;18.604;2023-08-21T11:49:11;30.61;40.54
54540;SHT30;40438;52.992;18.604;2023-08-21T11:51:38;30.50;41.15
54540;SHT30;40438;52.992;18.604;2023-08-21T11:54:06;30.58;40.29
54540;SHT30;40438;52.992;18.604;2023-08-21T11:56:32;30.64;40.39
54540;SHT30;40438;52.992;18.604;2023-08-21T11:58:57;30.72;40.75
54540;SHT30;40438;52.992;18.604;2023-08-21T12:01:23;30.61;39.48
54540;SHT30;40438;52.992;18.604;2023-08-21T12:03:49;30.38;40.22
54540;SHT30;40438;52.992;18.604;2023-08-21T12:06:15;30.24;40.67
54540;SHT30;40438;52.992;18.604;2023-08-21T12:08:40;30.07;41.58
54540;SHT30;40438;52.992;18.604;2023-08-21T12:11:08;29.85;41.75
54540;SHT30;40438;52.992;18.604;2023-08-21T12:13:33;30.28;40.88
54540;SHT30;40438;52.992;18.604;2023-08-21T12:15:59;30.48;40.44
54540;SHT30;40438;52.992;18.604;2023-08-21T12:18:25;30.74;40.29
54540;SHT30;40438;52.992;18.604;2023-08-21T12:20:51;30.72;40.80
54540;SHT30;40438;52.992;18.604;2023-08-21T12:23:17;30.60;41.12
54540;SHT30;40438;52.992;18.604;2023-08-21T12:25:42;30.47;40.81
54540;SHT30;40438;52.992;18.604;2023-08-21T12:28:10;30.34;41.02
54540;SHT30;40438;52.992;18.604;2023-08-21T12:30:36;30.13;41.98
54540;SHT30;40438;52.992;18.604;2023-08-21T12:33:02;30.21;42.04
54540;SHT30;40438;52.992;18.604;2023-08-21T12:35:28;30.40;41.48
54540;SHT30;40438;52.992;18.604;2023-08-21T12:37:56;30.21;41.37
54540;SHT30;40438;52.992;18.604;2023-08-21T12:40:22;30.03;42.05
54540;SHT30;40438;52.992;18.604;2023-08-21T12:42:48;29.85;42.32
54540;SHT30;40438;52.992;18.604;2023-08-21T12:45:15;29.77;42.30
54540;SHT30;40438;52.992;18.604;2023-08-21T12:47:41;29.61;42.90
54540;SHT30;40438;52.992;18.604;2023-08-21T12:50:07;29.48;42.94
54540;SHT30;40438;52.992;18.604;2023-08-21T12:52:33;29.34;43.26
54540;SHT30;40438;52.992;18.604;2023-08-21T12:54:59;29.18;44.17
54540;SHT30;40438;52.992;18.604;2023-08-21T12:57:25;29.14;44.17
54540;SHT30;40438;52.992;18.604;2023-08-21T12:59:50;29.20;44.19
54540;SHT30;40438;52.992;18.604;2023-08-21T13:02:18;29.16;43.62
54540;SHT30;40438;52.992;18.604;2023-08-21T13:04:43;29.24;43.58
54540;SHT30;40438;52.992;18.604;2023-08-21T13:07:09;29.23;43.59
54540;SHT30;40438;52.992;18.604;2023-08-21T13:09:35;29.08;43.61
54540;SHT30;40438;52.992;18.604;2023-08-21T13:12:01;29.11;44.40
54540;SHT30;40438;52.992;18.604;2023-08-21T13:14:27;29.11;44.63
54540;SHT30;40438;52.992;18.604;2023-08-21T13:16:52;29.08;44.41
54540;SHT30;40438;52.992;18.604;2023-08-21T13:19:20;29.08;44.78
54540;SHT30;40438;52.992;18.604;2023-08-21T13:21:45;29.12;44.81
54540;SHT30;40438;52.992;18.604;2023-08-21T13:24:11;29.12;44.70
54540;SHT30;40438;52.992;18.604;2023-08-21T13:26:37;29.10;44.77
54540;SHT30;40438;52.992;18.604;2023-08-21T13:29:03;29.14;45.26
54540;SHT30;40438;52.992;18.604;2023-08-21T13:31:28;29.11;45.04
54540;SHT30;40438;52.992;18.604;2023-08-21T13:33:54;29.10;45.11
54540;SHT30;40438;52.992;18.604;2023-08-21T13:36:21;29.01;45.46
54540;SHT30;40438;52.992;18.604;2023-08-21T13:38:47;28.84;45.92
54540;SHT30;40438;52.992;18.604;2023-08-21T13:41:13;28.80;46.37
54540;SHT30;40438;52.992;18.604;2023-08-21T13:43:39;28.76;46.27
54540;SHT30;40438;52.992;18.604;2023-08-21T13:46:04;28.70;45.98
54540;SHT30;40438;52.992;18.604;2023-08-21T13:48:30;28.57;46.29
54540;SHT30;40438;52.992;18.604;2023-08-21T13:50:56;28.53;46.36
54540;SHT30;40438;52.992;18.604;2023-08-21T13:53:23;28.39;46.70
54540;SHT30;40438;52.992;18.604;2023-08-21T13:55:49;28.24;46.98
54540;SHT30;40438;52.992;18.604;2023-08-21T13:58:15;28.12;47.30
54540;SHT30;40438;52.992;18.604;2023-08-21T14:00:41;28.00;47.76
54540;SHT30;40438;52.992;18.604;2023-08-21T14:03:07;27.88;47.81
54540;SHT30;40438;52.992;18.604;2023-08-21T14:05:33;27.76;48.16
54540;SHT30;40438;52.992;18.604;2023-08-21T14:07:58;27.74;48.20
54540;SHT30;40438;52.992;18.604;2023-08-21T14:10:26;27.67;48.69
54540;SHT30;40438;52.992;18.604;2023-08-21T14:12:52;27.61;48.91
54540;SHT30;40438;52.992;18.604;2023-08-21T14:15:18;27.53;49.05
54540;SHT30;40438;52.992;18.604;2023-08-21T14:17:44;27.56;49.05
54540;SHT30;40438;52.992;18.604;2023-08-21T14:20:10;27.53;48.99
54540;SHT30;40438;52.992;18.604;2023-08-21T14:22:36;27.50;49.09
54540;SHT30;40438;52.992;18.604;2023-08-21T14:25:02;27.39;49.31
54540;SHT30;40438;52.992;18.604;2023-08-21T14:27:29;27.29;49.87
54540;SHT30;40438;52.992;18.604;2023-08-21T14:29:55;27.24;50.05
54540;SHT30;40438;52.992;18.604;2023-08-21T14:32:21;27.23;50.10
54540;SHT30;40438;52.992;18.604;2023-08-21T14:34:47;27.22;50.44
54540;SHT30;40438;52.992;18.604;2023-08-21T14:37:12;27.18;50.87
54540;SHT30;40438;52.992;18.604;2023-08-21T14:39:38;27.26;50.91
54540;SHT30;40438;52.992;18.604;2023-08-21T14:42:04;27.23;51.03
54540;SHT30;40438;52.992;18.604;2023-08-21T14:44:32;27.27;50.65
54540;SHT30;40438;52.992;18.604;2023-08-21T14:46:57;27.37;50.34
54540;SHT30;40438;52.992;18.604;2023-08-21T14:49:23;27.61;50.04
54540;SHT30;40438;52.992;18.604;2023-08-21T14:51:49;27.95;49.62
54540;SHT30;40438;52.992;18.604;2023-08-21T14:54:15;28.33;48.92
54540;SHT30;40438;52.992;18.604;2023-08-21T14:56:41;28.49;48.35
54540;SHT30;40438;52.992;18.604;2023-08-21T14:59:06;28.66;47.18
54540;SHT30;40438;52.992;18.604;2023-08-21T15:01:34;28.90;46.73
54540;SHT30;40438;52.992;18.604;2023-08-21T15:03:59;29.07;46.82
54540;SHT30;40438;52.992;18.604;2023-08-21T15:06:25;29.34;46.58
54540;SHT30;40438;52.992;18.604;2023-08-21T15:08:51;29.49;45.94
54540;SHT30;40438;52.992;18.604;2023-08-21T15:11:17;29.65;45.50